sensor_id;sensor_type;location;lat;lon;timestamp;P1;durP1;ratioP1;P2;durP2;ratioP2
10617;SDS011;5356;43.526;26.534;2024-03-08T00:00:27;30.02;;;15.00;;
10617;SDS011;5356;43.526;26.534;2024-03-08T00:02:52;28.48;;;14.32;;
10617;SDS011;5356;43.526;26.534;2024-03-08T00:05:19;31.90;;;16.10;;
10617;SDS011;5356;43.526;26.534;2024-03-08T00:07:44;34.42;;;15.52;;
10617;SDS011;5356;43.526;26.534;2024-03-08T00:10:11;30.13;;;15.18;;
10617;SDS011;5356;43.526;26.534;2024-03-08T00:12:38;36.55;;;17.85;;
10617;SDS011;5356;43.526;26.534;2024-03-08T00:15:08;30.27;;;15.40;;
10617;SDS011;5356;43.526;26.534;2024-03-08T00:17:35;30.88;;;15.48;;
10617;SDS011;5356;43.526;26.534;2024-03-08T00:20:01;35.67;;;15.95;;
10617;SDS011;5356;43.526;26.534;2024-03-08T00:22:33;36.20;;;16.65;;
10617;SDS011;5356;43.526;26.534;2024-03-08T00:24:59;34.78;;;16.13;;
10617;SDS011;5356;43.526;26.534;2024-03-08T00:27:24;30.33;;;15.27;;
10617;SDS011;5356;43.526;26.534;2024-03-08T00:29:50;32.83;;;16.20;;
10617;SDS011;5356;43.526;26.534;2024-03-08T00:32:15;32.45;;;15.65;;
10617;SDS011;5356;43.526;26.534;2024-03-08T00:34:42;38.88;;;17.23;;
10617;SDS011;5356;43.526;26.534;2024-03-08T00:37:08;32.53;;;16.30;;
10617;SDS011;5356;43.526;26.534;2024-03-08T00:39:33;33.05;;;15.13;;
10617;SDS011;5356;43.526;26.534;2024-03-08T00:41:59;37.03;;;17.02;;
10617;SDS011;5356;43.526;26.534;2024-03-08T00:44:24;33.40;;;16.60;;
10617;SDS011;5356;43.526;26.534;2024-03-08T00:46:50;38.45;;;16.80;;
10617;SDS011;5356;43.526;26.534;2024-03-08T00:49:16;37.80;;;18.13;;
10617;SDS011;5356;43.526;26.534;2024-03-08T00:51:41;45.72;;;18.98;;
10617;SDS011;5356;43.526;26.534;2024-03-08T00:54:08;38.53;;;17.95;;
10617;SDS011;5356;43.526;26.534;2024-03-08T00:56:34;40.08;;;17.67;;
10617;SDS011;5356;43.526;26.534;2024-03-08T00:59:00;33.58;;;17.45;;
10617;SDS011;5356;43.526;26.534;2024-03-08T01:01:27;47.55;;;19.42;;
10617;SDS011;5356;43.526;26.534;2024-03-08T01:03:53;37.28;;;17.13;;
10617;SDS011;5356;43.526;26.534;2024-03-08T01:06:19;43.65;;;18.35;;
10617;SDS011;5356;43.526;26.534;2024-03-08T01:08:45;38.92;;;18.17;;
10617;SDS011;5356;43.526;26.534;2024-03-08T01:11:12;40.63;;;17.77;;
10617;SDS011;5356;43.526;26.534;2024-03-08T01:13:38;42.03;;;18.48;;
10617;SDS011;5356;43.526;26.534;2024-03-08T01:16:04;39.50;;;15.77;;
10617;SDS011;5356;43.526;26.534;2024-03-08T01:18:30;38.47;;;17.95;;
10617;SDS011;5356;43.526;26.534;2024-03-08T01:20:55;36.42;;;17.08;;
10617;SDS011;5356;43.526;26.534;2024-03-08T01:23:21;41.70;;;18.20;;
10617;SDS011;5356;43.526;26.534;2024-03-08T01:25:46;41.13;;;17.02;;
10617;SDS011;5356;43.526;26.534;2024-03-08T01:28:14;34.00;;;17.92;;
10617;SDS011;5356;43.526;26.534;2024-03-08T01:30:39;49.35;;;18.23;;
10617;SDS011;5356;43.526;26.534;2024-03-08T01:33:05;40.38;;;16.42;;
10617;SDS011;5356;43.526;26.534;2024-03-08T01:35:30;43.22;;;17.50;;
10617;SDS011;5356;43.526;26.534;2024-03-08T01:37:56;41.40;;;19.05;;
10617;SDS011;5356;43.526;26.534;2024-03-08T01:40:21;34.90;;;16.35;;
10617;SDS011;5356;43.526;26.534;2024-03-08T01:42:47;41.08;;;18.23;;
10617;SDS011;5356;43.526;26.534;2024-03-08T01:45:13;42.70;;;17.67;;
10617;SDS011;5356;43.526;26.534;2024-03-08T01:47:39;34.42;;;15.55;;
10617;SDS011;5356;43.526;26.534;2024-03-08T01:50:05;39.63;;;17.70;;
10617;SDS011;5356;43.526;26.534;2024-03-08T01:52:34;37.25;;;17.52;;
10617;SDS011;5356;43.526;26.534;2024-03-08T01:55:02;38.42;;;18.80;;
10617;SDS011;5356;43.526;26.534;2024-03-08T01:57:29;41.80;;;18.73;;
10617;SDS011;5356;43.526;26.534;2024-03-08T01:59:56;40.38;;;18.25;;
10617;SDS011;5356;43.526;26.534;2024-03-08T02:02:22;42.55;;;17.52;;
10617;SDS011;5356;43.526;26.534;2024-03-08T02:04:48;40.53;;;17.92;;
10617;SDS011;5356;43.526;26.534;2024-03-08T02:07:17;35.92;;;16.92;;
10617;SDS011;5356;43.526;26.534;2024-03-08T02:09:43;44.40;;;19.33;;
10617;SDS011;5356;43.526;26.534;2024-03-08T02:12:08;37.17;;;17.95;;
10617;SDS011;5356;43.526;26.534;2024-03-08T02:14:35;43.80;;;17.38;;
10617;SDS011;5356;43.526;26.534;2024-03-08T02:17:01;43.88;;;19.42;;
10617;SDS011;5356;43.526;26.534;2024-03-08T02:19:27;45.90;;;18.35;;
10617;SDS011;5356;43.526;26.534;2024-03-08T02:21:53;45.35;;;19.92;;
10617;SDS011;5356;43.526;26.534;2024-03-08T02:24:18;44.83;;;18.40;;
10617;SDS011;5356;43.526;26.534;2024-03-08T02:26:44;53.55;;;19.90;;
10617;SDS011;5356;43.526;26.534;2024-03-08T02:29:09;44.45;;;17.48;;
10617;SDS011;5356;43.526;26.534;2024-03-08T02:31:35;46.53;;;18.67;;
10617;SDS011;5356;43.526;26.534;2024-03-08T02:34:01;48.22;;;19.33;;
10617;SDS011;5356;43.526;26.534;2024-03-08T02:36:27;50.40;;;19.63;;
10617;SDS011;5356;43.526;26.534;2024-03-08T02:38:52;43.92;;;17.65;;
10617;SDS011;5356;43.526;26.534;2024-03-08T02:41:18;45.97;;;18.38;;
10617;SDS011;5356;43.526;26.534;2024-03-08T02:43:43;48.17;;;19.58;;
10617;SDS011;5356;43.526;26.534;2024-03-08T02:46:10;53.35;;;20.05;;
10617;SDS011;5356;43.526;26.534;2024-03-08T02:48:36;50.15;;;18.42;;
10617;SDS011;5356;43.526;26.534;2024-03-08T02:51:01;52.80;;;19.75;;
10617;SDS011;5356;43.526;26.534;2024-03-08T02:53:27;45.58;;;19.30;;
10617;SDS011;5356;43.526;26.534;2024-03-08T02:55:53;45.83;;;20.42;;
10617;SDS011;5356;43.526;26.534;2024-03-08T02:58:18;44.65;;;17.52;;
10617;SDS011;5356;43.526;26.534;2024-03-08T03:00:44;47.40;;;17.45;;
10617;SDS011;5356;43.526;26.534;2024-03-08T03:03:09;46.33;;;18.42;;
10617;SDS011;5356;43.526;26.534;2024-03-08T03:05:35;49.95;;;17.23;;
10617;SDS011;5356;43.526;26.534;2024-03-08T03:08:00;48.50;;;18.75;;
10617;SDS011;5356;43.526;26.534;2024-03-08T03:10:26;44.75;;;19.65;;
10617;SDS011;5356;43.526;26.534;2024-03-08T03:12:52;42.50;;;18.02;;
10617;SDS011;5356;43.526;26.534;2024-03-08T03:15:18;44.03;;;17.98;;
10617;SDS011;5356;43.526;26.534;2024-03-08T03:17:47;40.80;;;16.85;;
10617;SDS011;5356;43.526;26.534;2024-03-08T03:20:16;47.10;;;20.02;;
10617;SDS011;5356;43.526;26.534;2024-03-08T03:22:58;47.20;;;18.75;;
10617;SDS011;5356;43.526;26.534;2024-03-08T03:25:26;44.03;;;18.08;;
10617;SDS011;5356;43.526;26.534;2024-03-08T03:27:58;45.13;;;18.83;;
10617;SDS011;5356;43.526;26.534;2024-03-08T03:30:24;39.08;;;16.80;;
10617;SDS011;5356;43.526;26.534;2024-03-08T03:32:51;42.47;;;17.60;;
10617;SDS011;5356;43.526;26.534;2024-03-08T03:35:17;42.45;;;17.25;;
10617;SDS011;5356;43.526;26.534;2024-03-08T03:37:45;41.53;;;18.08;;
10617;SDS011;5356;43.526;26.534;2024-03-08T03:40:26;44.35;;;17.00;;
10617;SDS011;5356;43.526;26.534;2024-03-08T03:42:53;44.25;;;19.20;;
10617;SDS011;5356;43.526;26.534;2024-03-08T03:45:18;41.15;;;18.13;;
10617;SDS011;5356;43.526;26.534;2024-03-08T03:47:45;40.05;;;16.13;;
10617;SDS011;5356;43.526;26.534;2024-03-08T03:50:11;72.95;;;27.05;;
10617;SDS011;5356;43.526;26.534;2024-03-08T03:52:36;46.53;;;18.55;;
10617;SDS011;5356;43.526;26.534;2024-03-08T03:55:02;146.15;;;46.65;;
10617;SDS011;5356;43.526;26.534;2024-03-08T03:57:29;102.30;;;36.13;;
10617;SDS011;5356;43.526;26.534;2024-03-08T03:59:55;49.78;;;20.08;;
10617;SDS011;5356;43.526;26.534;2024-03-08T04:02:23;54.88;;;20.25;;
10617;SDS011;5356;43.526;26.534;2024-03-08T04:04:51;37.47;;;17.13;;
10617;SDS011;5356;43.526;26.534;2024-03-08T04:07:19;46.60;;;21.05;;
10617;SDS011;5356;43.526;26.534;2024-03-08T04:09:45;38.33;;;17.17;;
10617;SDS011;5356;43.526;26.534;2024-03-08T04:12:11;36.15;;;16.42;;
10617;SDS011;5356;43.526;26.534;2024-03-08T04:14:37;34.58;;;16.30;;
10617;SDS011;5356;43.526;26.534;2024-03-08T04:17:04;39.85;;;18.05;;
10617;SDS011;5356;43.526;26.534;2024-03-08T04:19:31;34.72;;;16.60;;
10617;SDS011;5356;43.526;26.534;2024-03-08T04:21:56;30.33;;;14.98;;
10617;SDS011;5356;43.526;26.534;2024-03-08T04:24:22;34.53;;;16.35;;
10617;SDS011;5356;43.526;26.534;2024-03-08T04:26:47;32.47;;;15.38;;
10617;SDS011;5356;43.526;26.534;2024-03-08T04:29:12;29.58;;;14.15;;
10617;SDS011;5356;43.526;26.534;2024-03-08T04:31:39;33.50;;;15.38;;
10617;SDS011;5356;43.526;26.534;2024-03-08T04:34:05;29.33;;;14.00;;
10617;SDS011;5356;43.526;26.534;2024-03-08T04:36:31;31.58;;;14.43;;
10617;SDS011;5356;43.526;26.534;2024-03-08T04:38:56;29.50;;;14.23;;
10617;SDS011;5356;43.526;26.534;2024-03-08T04:41:22;30.70;;;15.75;;
10617;SDS011;5356;43.526;26.534;2024-03-08T04:43:48;33.25;;;15.57;;
10617;SDS011;5356;43.526;26.534;2024-03-08T04:46:14;28.33;;;14.85;;
10617;SDS011;5356;43.526;26.534;2024-03-08T04:48:39;33.38;;;14.75;;
10617;SDS011;5356;43.526;26.534;2024-03-08T04:51:07;29.42;;;13.82;;
10617;SDS011;5356;43.526;26.534;2024-03-08T04:53:33;33.78;;;15.25;;
10617;SDS011;5356;43.526;26.534;2024-03-08T04:55:59;34.80;;;16.58;;
10617;SDS011;5356;43.526;26.534;2024-03-08T04:58:25;34.17;;;15.13;;
10617;SDS011;5356;43.526;26.534;2024-03-08T05:00:50;29.90;;;13.38;;
10617;SDS011;5356;43.526;26.534;2024-03-08T05:03:16;37.38;;;15.48;;
10617;SDS011;5356;43.526;26.534;2024-03-08T05:05:42;31.38;;;15.45;;
10617;SDS011;5356;43.526;26.534;2024-03-08T05:08:07;30.38;;;14.77;;
10617;SDS011;5356;43.526;26.534;2024-03-08T05:10:32;30.95;;;15.32;;
10617;SDS011;5356;43.526;26.534;2024-03-08T05:12:58;35.17;;;14.82;;
10617;SDS011;5356;43.526;26.534;2024-03-08T05:15:24;37.92;;;15.95;;
10617;SDS011;5356;43.526;26.534;2024-03-08T05:17:49;31.52;;;15.63;;
10617;SDS011;5356;43.526;26.534;2024-03-08T05:20:15;35.60;;;15.65;;
10617;SDS011;5356;43.526;26.534;2024-03-08T05:22:42;31.48;;;14.43;;
10617;SDS011;5356;43.526;26.534;2024-03-08T05:25:08;29.38;;;14.27;;
10617;SDS011;5356;43.526;26.534;2024-03-08T05:27:34;28.00;;;14.57;;
10617;SDS011;5356;43.526;26.534;2024-03-08T05:30:01;35.45;;;16.83;;
10617;SDS011;5356;43.526;26.534;2024-03-08T05:32:31;37.92;;;17.27;;
10617;SDS011;5356;43.526;26.534;2024-03-08T05:34:57;34.20;;;15.50;;
10617;SDS011;5356;43.526;26.534;2024-03-08T05:37:22;34.90;;;16.52;;
10617;SDS011;5356;43.526;26.534;2024-03-08T05:39:48;29.02;;;15.43;;
10617;SDS011;5356;43.526;26.534;2024-03-08T05:42:13;35.83;;;16.27;;
10617;SDS011;5356;43.526;26.534;2024-03-08T05:44:39;37.30;;;16.65;;
10617;SDS011;5356;43.526;26.534;2024-03-08T05:47:05;32.25;;;15.55;;
10617;SDS011;5356;43.526;26.534;2024-03-08T05:49:32;31.88;;;16.48;;
10617;SDS011;5356;43.526;26.534;2024-03-08T05:51:57;37.53;;;18.17;;
10617;SDS011;5356;43.526;26.534;2024-03-08T05:54:23;35.20;;;18.35;;
10617;SDS011;5356;43.526;26.534;2024-03-08T05:56:49;39.72;;;18.63;;
10617;SDS011;5356;43.526;26.534;2024-03-08T05:59:17;33.22;;;15.65;;
10617;SDS011;5356;43.526;26.534;2024-03-08T06:01:43;32.97;;;16.70;;
10617;SDS011;5356;43.526;26.534;2024-03-08T06:04:11;35.08;;;16.00;;
10617;SDS011;5356;43.526;26.534;2024-03-08T06:06:36;36.35;;;16.05;;
10617;SDS011;5356;43.526;26.534;2024-03-08T06:09:02;32.53;;;15.82;;
10617;SDS011;5356;43.526;26.534;2024-03-08T06:11:36;33.45;;;15.45;;
10617;SDS011;5356;43.526;26.534;2024-03-08T06:14:02;38.17;;;15.95;;
10617;SDS011;5356;43.526;26.534;2024-03-08T06:16:28;28.92;;;15.45;;
10617;SDS011;5356;43.526;26.534;2024-03-08T06:18:55;31.63;;;16.58;;
10617;SDS011;5356;43.526;26.534;2024-03-08T06:21:22;34.75;;;17.70;;
10617;SDS011;5356;43.526;26.534;2024-03-08T06:23:48;34.70;;;16.48;;
10617;SDS011;5356;43.526;26.534;2024-03-08T06:26:13;38.80;;;16.02;;
10617;SDS011;5356;43.526;26.534;2024-03-08T06:28:39;36.53;;;16.60;;
10617;SDS011;5356;43.526;26.534;2024-03-08T06:31:04;42.63;;;17.77;;
10617;SDS011;5356;43.526;26.534;2024-03-08T06:33:30;35.13;;;16.30;;
10617;SDS011;5356;43.526;26.534;2024-03-08T06:36:00;38.70;;;17.05;;
10617;SDS011;5356;43.526;26.534;2024-03-08T06:38:25;37.75;;;16.13;;
10617;SDS011;5356;43.526;26.534;2024-03-08T06:40:52;36.20;;;18.33;;
10617;SDS011;5356;43.526;26.534;2024-03-08T06:43:18;37.13;;;18.10;;
10617;SDS011;5356;43.526;26.534;2024-03-08T06:45:44;39.17;;;17.15;;
10617;SDS011;5356;43.526;26.534;2024-03-08T06:48:17;36.50;;;17.77;;
10617;SDS011;5356;43.526;26.534;2024-03-08T06:50:46;42.25;;;18.88;;
10617;SDS011;5356;43.526;26.534;2024-03-08T06:53:12;40.72;;;18.63;;
10617;SDS011;5356;43.526;26.534;2024-03-08T06:55:38;35.17;;;17.73;;
10617;SDS011;5356;43.526;26.534;2024-03-08T06:58:04;39.22;;;17.33;;
10617;SDS011;5356;43.526;26.534;2024-03-08T07:00:30;37.17;;;17.10;;
10617;SDS011;5356;43.526;26.534;2024-03-08T07:02:56;38.78;;;18.00;;
10617;SDS011;5356;43.526;26.534;2024-03-08T07:05:26;35.17;;;16.80;;
10617;SDS011;5356;43.526;26.534;2024-03-08T07:07:55;36.78;;;17.00;;
10617;SDS011;5356;43.526;26.534;2024-03-08T07:10:21;38.85;;;16.83;;
10617;SDS011;5356;43.526;26.534;2024-03-08T07:12:49;36.50;;;17.08;;
10617;SDS011;5356;43.526;26.534;2024-03-08T07:15:15;35.72;;;16.83;;
10617;SDS011;5356;43.526;26.534;2024-03-08T07:17:44;37.47;;;17.25;;
10617;SDS011;5356;43.526;26.534;2024-03-08T07:20:12;30.75;;;15.15;;
10617;SDS011;5356;43.526;26.534;2024-03-08T07:22:40;27.25;;;14.25;;
10617;SDS011;5356;43.526;26.534;2024-03-08T07:25:06;30.30;;;13.57;;
10617;SDS011;5356;43.526;26.534;2024-03-08T07:27:54;28.88;;;14.60;;
10617;SDS011;5356;43.526;26.534;2024-03-08T07:30:21;26.10;;;13.30;;
10617;SDS011;5356;43.526;26.534;2024-03-08T07:33:06;28.73;;;14.98;;
10617;SDS011;5356;43.526;26.534;2024-03-08T07:35:32;31.75;;;13.85;;
10617;SDS011;5356;43.526;26.534;2024-03-08T07:38:02;25.95;;;13.27;;
10617;SDS011;5356;43.526;26.534;2024-03-08T07:40:32;27.70;;;14.30;;
10617;SDS011;5356;43.526;26.534;2024-03-08T07:43:00;23.75;;;12.65;;
10617;SDS011;5356;43.526;26.534;2024-03-08T07:45:27;27.55;;;12.63;;
10617;SDS011;5356;43.526;26.534;2024-03-08T07:47:52;20.30;;;11.10;;
10617;SDS011;5356;43.526;26.534;2024-03-08T07:50:18;29.98;;;12.77;;
10617;SDS011;5356;43.526;26.534;2024-03-08T07:52:44;26.20;;;15.02;;
10617;SDS011;5356;43.526;26.534;2024-03-08T07:55:10;24.25;;;12.60;;
10617;SDS011;5356;43.526;26.534;2024-03-08T07:57:35;25.13;;;13.45;;
10617;SDS011;5356;43.526;26.534;2024-03-08T08:00:03;24.77;;;12.25;;
10617;SDS011;5356;43.526;26.534;2024-03-08T08:02:32;25.50;;;12.55;;
10617;SDS011;5356;43.526;26.534;2024-03-08T08:04:58;27.38;;;13.40;;
10617;SDS011;5356;43.526;26.534;2024-03-08T08:07:24;32.28;;;14.32;;
10617;SDS011;5356;43.526;26.534;2024-03-08T08:09:49;24.63;;;13.48;;
10617;SDS011;5356;43.526;26.534;2024-03-08T08:12:15;20.80;;;12.50;;
10617;SDS011;5356;43.526;26.534;2024-03-08T08:14:41;22.95;;;12.32;;
10617;SDS011;5356;43.526;26.534;2024-03-08T08:17:06;28.05;;;13.18;;
10617;SDS011;5356;43.526;26.534;2024-03-08T08:19:33;23.20;;;13.45;;
10617;SDS011;5356;43.526;26.534;2024-03-08T08:22:00;24.92;;;12.70;;
10617;SDS011;5356;43.526;26.534;2024-03-08T08:24:27;25.20;;;13.25;;
10617;SDS011;5356;43.526;26.534;2024-03-08T08:26:53;25.70;;;11.93;;
10617;SDS011;5356;43.526;26.534;2024-03-08T08:29:18;25.42;;;12.98;;
10617;SDS011;5356;43.526;26.534;2024-03-08T08:31:45;30.25;;;12.82;;
10617;SDS011;5356;43.526;26.534;2024-03-08T08:34:11;21.60;;;10.93;;
10617;SDS011;5356;43.526;26.534;2024-03-08T08:36:38;23.73;;;12.02;;
10617;SDS011;5356;43.526;26.534;2024-03-08T08:39:04;23.23;;;11.88;;
10617;SDS011;5356;43.526;26.534;2024-03-08T08:41:30;21.13;;;11.82;;
10617;SDS011;5356;43.526;26.534;2024-03-08T08:43:56;28.02;;;13.13;;
10617;SDS011;5356;43.526;26.534;2024-03-08T08:46:22;24.20;;;11.73;;
10617;SDS011;5356;43.526;26.534;2024-03-08T08:48:48;27.10;;;12.57;;
10617;SDS011;5356;43.526;26.534;2024-03-08T08:51:13;27.08;;;12.52;;
10617;SDS011;5356;43.526;26.534;2024-03-08T08:53:40;27.98;;;11.77;;
10617;SDS011;5356;43.526;26.534;2024-03-08T08:56:08;20.95;;;12.10;;
10617;SDS011;5356;43.526;26.534;2024-03-08T08:58:34;24.05;;;11.00;;
10617;SDS011;5356;43.526;26.534;2024-03-08T09:00:59;22.00;;;11.07;;
10617;SDS011;5356;43.526;26.534;2024-03-08T09:03:26;21.42;;;11.50;;
10617;SDS011;5356;43.526;26.534;2024-03-08T09:05:53;19.35;;;11.50;;
10617;SDS011;5356;43.526;26.534;2024-03-08T09:08:18;19.80;;;11.57;;
10617;SDS011;5356;43.526;26.534;2024-03-08T09:10:44;26.08;;;13.80;;
10617;SDS011;5356;43.526;26.534;2024-03-08T09:13:10;24.95;;;12.15;;
10617;SDS011;5356;43.526;26.534;2024-03-08T09:15:38;21.50;;;11.32;;
10617;SDS011;5356;43.526;26.534;2024-03-08T09:18:05;22.70;;;12.43;;
10617;SDS011;5356;43.526;26.534;2024-03-08T09:20:31;23.40;;;11.85;;
10617;SDS011;5356;43.526;26.534;2024-03-08T09:22:57;25.42;;;12.30;;
10617;SDS011;5356;43.526;26.534;2024-03-08T09:25:23;20.75;;;11.02;;
10617;SDS011;5356;43.526;26.534;2024-03-08T09:27:48;24.25;;;11.60;;
10617;SDS011;5356;43.526;26.534;2024-03-08T09:30:14;18.92;;;9.80;;
10617;SDS011;5356;43.526;26.534;2024-03-08T09:32:40;24.55;;;12.40;;
10617;SDS011;5356;43.526;26.534;2024-03-08T09:35:06;22.63;;;10.85;;
10617;SDS011;5356;43.526;26.534;2024-03-08T09:37:33;20.00;;;11.23;;
10617;SDS011;5356;43.526;26.534;2024-03-08T09:39:59;29.15;;;12.35;;
10617;SDS011;5356;43.526;26.534;2024-03-08T09:42:25;21.85;;;12.32;;
10617;SDS011;5356;43.526;26.534;2024-03-08T09:44:51;21.88;;;12.27;;
10617;SDS011;5356;43.526;26.534;2024-03-08T09:47:17;22.55;;;11.70;;
10617;SDS011;5356;43.526;26.534;2024-03-08T09:49:43;21.83;;;11.65;;
10617;SDS011;5356;43.526;26.534;2024-03-08T09:52:09;25.50;;;10.75;;
10617;SDS011;5356;43.526;26.534;2024-03-08T09:54:35;20.92;;;10.40;;
10617;SDS011;5356;43.526;26.534;2024-03-08T09:57:01;22.73;;;11.65;;
10617;SDS011;5356;43.526;26.534;2024-03-08T09:59:33;25.20;;;12.52;;
10617;SDS011;5356;43.526;26.534;2024-03-08T10:02:01;25.30;;;12.73;;
10617;SDS011;5356;43.526;26.534;2024-03-08T10:04:28;22.75;;;11.85;;
10617;SDS011;5356;43.526;26.534;2024-03-08T10:06:57;21.35;;;12.00;;
10617;SDS011;5356;43.526;26.534;2024-03-08T10:09:24;24.00;;;12.20;;
10617;SDS011;5356;43.526;26.534;2024-03-08T10:11:56;22.17;;;11.82;;
10617;SDS011;5356;43.526;26.534;2024-03-08T10:14:23;22.00;;;12.15;;
10617;SDS011;5356;43.526;26.534;2024-03-08T10:16:49;21.77;;;11.35;;
10617;SDS011;5356;43.526;26.534;2024-03-08T10:19:15;26.05;;;12.25;;
10617;SDS011;5356;43.526;26.534;2024-03-08T10:21:48;25.02;;;13.13;;
10617;SDS011;5356;43.526;26.534;2024-03-08T10:24:14;20.40;;;11.18;;
10617;SDS011;5356;43.526;26.534;2024-03-08T10:26:40;26.67;;;12.27;;
10617;SDS011;5356;43.526;26.534;2024-03-08T10:29:06;26.55;;;12.68;;
10617;SDS011;5356;43.526;26.534;2024-03-08T10:31:33;23.48;;;10.30;;
10617;SDS011;5356;43.526;26.534;2024-03-08T10:33:59;31.17;;;12.30;;
10617;SDS011;5356;43.526;26.534;2024-03-08T10:36:24;27.95;;;14.23;;
10617;SDS011;5356;43.526;26.534;2024-03-08T10:38:51;23.73;;;11.80;;
10617;SDS011;5356;43.526;26.534;2024-03-08T10:41:18;20.45;;;11.68;;
10617;SDS011;5356;43.526;26.534;2024-03-08T10:46:15;22.35;;;12.18;;
10617;SDS011;5356;43.526;26.534;2024-03-08T10:48:55;30.42;;;13.82;;
10617;SDS011;5356;43.526;26.534;2024-03-08T10:51:23;27.10;;;14.65;;
10617;SDS011;5356;43.526;26.534;2024-03-08T10:53:50;23.77;;;12.93;;
10617;SDS011;5356;43.526;26.534;2024-03-08T10:56:17;26.33;;;14.00;;
10617;SDS011;5356;43.526;26.534;2024-03-08T10:58:43;28.77;;;13.57;;
10617;SDS011;5356;43.526;26.534;2024-03-08T11:01:09;29.38;;;14.02;;
10617;SDS011;5356;43.526;26.534;2024-03-08T11:03:48;28.95;;;14.50;;
10617;SDS011;5356;43.526;26.534;2024-03-08T11:06:17;26.10;;;13.13;;
10617;SDS011;5356;43.526;26.534;2024-03-08T11:08:48;25.73;;;13.85;;
10617;SDS011;5356;43.526;26.534;2024-03-08T11:11:28;29.67;;;14.95;;
10617;SDS011;5356;43.526;26.534;2024-03-08T11:13:56;27.92;;;13.82;;
10617;SDS011;5356;43.526;26.534;2024-03-08T11:18:54;28.35;;;14.43;;
10617;SDS011;5356;43.526;26.534;2024-03-08T11:21:25;29.60;;;13.50;;
10617;SDS011;5356;43.526;26.534;2024-03-08T11:26:28;31.08;;;14.80;;
10617;SDS011;5356;43.526;26.534;2024-03-08T11:29:11;29.20;;;14.77;;
10617;SDS011;5356;43.526;26.534;2024-03-08T11:32:16;32.08;;;14.80;;
10617;SDS011;5356;43.526;26.534;2024-03-08T11:34:45;31.60;;;14.48;;
10617;SDS011;5356;43.526;26.534;2024-03-08T11:37:15;27.27;;;14.30;;
10617;SDS011;5356;43.526;26.534;2024-03-08T11:39:49;28.70;;;15.57;;
10617;SDS011;5356;43.526;26.534;2024-03-08T11:42:17;26.85;;;14.43;;
10617;SDS011;5356;43.526;26.534;2024-03-08T11:44:44;29.55;;;14.70;;
10617;SDS011;5356;43.526;26.534;2024-03-08T11:47:10;26.23;;;13.25;;
10617;SDS011;5356;43.526;26.534;2024-03-08T11:49:36;24.58;;;14.05;;
10617;SDS011;5356;43.526;26.534;2024-03-08T11:52:03;23.40;;;13.20;;
10617;SDS011;5356;43.526;26.534;2024-03-08T11:54:29;22.85;;;12.73;;
10617;SDS011;5356;43.526;26.534;2024-03-08T11:56:55;28.05;;;14.23;;
10617;SDS011;5356;43.526;26.534;2024-03-08T11:59:26;28.98;;;13.23;;
10617;SDS011;5356;43.526;26.534;2024-03-08T12:02:02;27.00;;;13.20;;
10617;SDS011;5356;43.526;26.534;2024-03-08T12:04:30;27.05;;;13.55;;
10617;SDS011;5356;43.526;26.534;2024-03-08T12:06:57;31.80;;;14.15;;
10617;SDS011;5356;43.526;26.534;2024-03-08T12:09:26;25.33;;;12.38;;
10617;SDS011;5356;43.526;26.534;2024-03-08T12:11:52;27.50;;;13.07;;
10617;SDS011;5356;43.526;26.534;2024-03-08T12:14:17;27.67;;;13.98;;
10617;SDS011;5356;43.526;26.534;2024-03-08T12:16:43;29.35;;;14.27;;
10617;SDS011;5356;43.526;26.534;2024-03-08T12:19:09;21.48;;;13.23;;
10617;SDS011;5356;43.526;26.534;2024-03-08T12:21:35;21.38;;;11.93;;
10617;SDS011;5356;43.526;26.534;2024-03-08T12:24:01;20.85;;;12.65;;
10617;SDS011;5356;43.526;26.534;2024-03-08T12:26:29;26.67;;;13.05;;
10617;SDS011;5356;43.526;26.534;2024-03-08T12:29:13;26.38;;;14.52;;
10617;SDS011;5356;43.526;26.534;2024-03-08T12:31:45;29.90;;;14.57;;
10617;SDS011;5356;43.526;26.534;2024-03-08T12:34:16;25.42;;;13.52;;
10617;SDS011;5356;43.526;26.534;2024-03-08T12:36:46;28.92;;;14.43;;
10617;SDS011;5356;43.526;26.534;2024-03-08T12:39:13;27.58;;;13.93;;
10617;SDS011;5356;43.526;26.534;2024-03-08T12:41:41;24.80;;;13.30;;
10617;SDS011;5356;43.526;26.534;2024-03-08T12:44:06;24.25;;;13.00;;
10617;SDS011;5356;43.526;26.534;2024-03-08T12:46:36;24.25;;;12.45;;
10617;SDS011;5356;43.526;26.534;2024-03-08T12:49:08;29.98;;;14.02;;
10617;SDS011;5356;43.526;26.534;2024-03-08T12:51:34;23.40;;;12.00;;
10617;SDS011;5356;43.526;26.534;2024-03-08T12:54:01;26.35;;;12.60;;
10617;SDS011;5356;43.526;26.534;2024-03-08T12:56:30;31.25;;;13.73;;
10617;SDS011;5356;43.526;26.534;2024-03-08T12:58:58;26.23;;;13.65;;
10617;SDS011;5356;43.526;26.534;2024-03-08T13:01:25;27.30;;;14.25;;
10617;SDS011;5356;43.526;26.534;2024-03-08T13:03:50;27.30;;;13.40;;
10617;SDS011;5356;43.526;26.534;2024-03-08T13:06:16;26.73;;;12.73;;
10617;SDS011;5356;43.526;26.534;2024-03-08T13:08:41;29.35;;;13.80;;
10617;SDS011;5356;43.526;26.534;2024-03-08T13:11:09;23.25;;;12.57;;
10617;SDS011;5356;43.526;26.534;2024-03-08T13:13:36;25.10;;;12.80;;
10617;SDS011;5356;43.526;26.534;2024-03-08T13:16:03;26.95;;;14.00;;
10617;SDS011;5356;43.526;26.534;2024-03-08T13:18:33;26.17;;;12.75;;
10617;SDS011;5356;43.526;26.534;2024-03-08T13:20:58;31.63;;;13.10;;
10617;SDS011;5356;43.526;26.534;2024-03-08T13:23:24;25.83;;;14.27;;
10617;SDS011;5356;43.526;26.534;2024-03-08T13:25:49;31.38;;;15.07;;
10617;SDS011;5356;43.526;26.534;2024-03-08T13:28:15;26.75;;;15.25;;
10617;SDS011;5356;43.526;26.534;2024-03-08T13:30:42;24.45;;;12.18;;
10617;SDS011;5356;43.526;26.534;2024-03-08T13:33:09;28.27;;;14.73;;
10617;SDS011;5356;43.526;26.534;2024-03-08T13:35:34;24.85;;;14.38;;
10617;SDS011;5356;43.526;26.534;2024-03-08T13:38:00;22.42;;;11.43;;
10617;SDS011;5356;43.526;26.534;2024-03-08T13:40:29;30.90;;;17.38;;
10617;SDS011;5356;43.526;26.534;2024-03-08T13:42:56;31.20;;;13.57;;
10617;SDS011;5356;43.526;26.534;2024-03-08T13:45:21;21.23;;;12.40;;
10617;SDS011;5356;43.526;26.534;2024-03-08T13:47:49;23.98;;;13.80;;
10617;SDS011;5356;43.526;26.534;2024-03-08T13:50:16;26.85;;;14.20;;
10617;SDS011;5356;43.526;26.534;2024-03-08T13:52:46;23.33;;;13.60;;
10617;SDS011;5356;43.526;26.534;2024-03-08T13:55:16;31.10;;;15.45;;
10617;SDS011;5356;43.526;26.534;2024-03-08T13:57:44;30.77;;;16.27;;
10617;SDS011;5356;43.526;26.534;2024-03-08T14:00:11;27.10;;;14.48;;
10617;SDS011;5356;43.526;26.534;2024-03-08T14:02:37;38.83;;;20.45;;
10617;SDS011;5356;43.526;26.534;2024-03-08T14:05:05;31.10;;;15.10;;
10617;SDS011;5356;43.526;26.534;2024-03-08T14:07:34;34.45;;;18.50;;
10617;SDS011;5356;43.526;26.534;2024-03-08T14:09:59;31.55;;;15.18;;
10617;SDS011;5356;43.526;26.534;2024-03-08T14:12:25;24.52;;;13.45;;
10617;SDS011;5356;43.526;26.534;2024-03-08T14:14:52;27.05;;;14.10;;
10617;SDS011;5356;43.526;26.534;2024-03-08T14:17:17;28.08;;;15.52;;
10617;SDS011;5356;43.526;26.534;2024-03-08T14:19:43;26.27;;;14.00;;
10617;SDS011;5356;43.526;26.534;2024-03-08T14:22:09;26.90;;;13.43;;
10617;SDS011;5356;43.526;26.534;2024-03-08T14:24:39;24.95;;;13.52;;
10617;SDS011;5356;43.526;26.534;2024-03-08T14:27:07;29.05;;;13.45;;